createdAt,value
2019-02-15T00:02:13.927Z,4.50
2019-02-15T00:05:29.418Z,5.00
2019-02-15T00:07:56.118Z,4.70
2019-02-15T00:10:23.203Z,5.50
2019-02-15T00:12:50.197Z,4.80
2019-02-15T00:15:17.421Z,5.30
2019-02-15T00:18:08.780Z,4.10
2019-02-15T00:20:38.680Z,6.20
2019-02-15T00:23:05.921Z,4.50
2019-02-15T00:25:32.960Z,4.30
2019-02-15T00:27:59.937Z,4.30
2019-02-15T00:30:26.954Z,4.60
2019-02-15T00:32:53.957Z,6.10
2019-02-15T00:35:20.880Z,5.90
2019-02-15T00:37:47.828Z,4.20
2019-02-15T00:40:16.509Z,4.10
2019-02-15T00:42:43.701Z,4.10
2019-02-15T00:45:10.916Z,2.50
2019-02-15T00:47:41.296Z,4.00
2019-02-15T00:50:14.372Z,3.70
2019-02-15T00:52:46.856Z,1.70
2019-02-15T00:55:25.936Z,6.10
2019-02-15T00:57:58.785Z,5.40
2019-02-15T01:00:50.852Z,4.00
2019-02-15T01:03:32.105Z,4.10
2019-02-15T01:06:14.706Z,2.80
2019-02-15T01:09:02.416Z,3.90
2019-02-15T01:11:33.754Z,3.70
2019-02-15T01:14:00.881Z,3.90
2019-02-15T01:16:27.908Z,6.20
2019-02-15T01:18:54.993Z,3.90
2019-02-15T01:21:22.052Z,6.20
2019-02-15T01:23:49.062Z,3.70
2019-02-15T01:26:21.213Z,3.40
2019-02-15T01:28:57.693Z,3.40
2019-02-15T01:31:44.250Z,3.90
2019-02-15T01:34:36.964Z,3.60
2019-02-15T01:37:12.469Z,3.60
2019-02-15T01:39:45.676Z,3.50
2019-02-15T01:42:25.254Z,3.50
2019-02-15T01:45:00.048Z,3.50
2019-02-15T01:47:30.866Z,3.60
2019-02-15T01:49:57.817Z,3.60
2019-02-15T01:52:24.786Z,4.80
2019-02-15T01:54:51.812Z,3.60
2019-02-15T01:57:18.760Z,3.40
2019-02-15T01:59:45.736Z,3.20
2019-02-15T02:02:12.727Z,3.20
2019-02-15T02:04:39.716Z,3.40
2019-02-15T02:07:06.674Z,3.30
2019-02-15T02:09:33.651Z,4.50
2019-02-15T02:12:00.615Z,3.60
2019-02-15T02:14:27.605Z,3.20
2019-02-15T02:23:38.358Z,3.00
2019-02-15T02:26:05.393Z,3.00
2019-02-15T02:28:32.356Z,3.00
2019-02-15T02:30:59.317Z,2.70
2019-02-15T02:33:26.368Z,3.20
2019-02-15T02:35:53.345Z,4.40
2019-02-15T02:38:20.393Z,3.80
2019-02-15T02:40:47.404Z,2.80
2019-02-15T02:43:14.528Z,2.80
2019-02-15T02:45:41.464Z,2.70
2019-02-15T02:48:08.438Z,3.90
2019-02-15T02:50:35.561Z,2.60
2019-02-15T02:53:02.424Z,3.20
2019-02-15T02:55:29.396Z,2.70
2019-02-15T02:57:56.405Z,2.90
2019-02-15T03:00:32.964Z,2.60
2019-02-15T03:02:50.341Z,3.00
2019-02-15T03:05:17.602Z,2.70
2019-02-15T03:07:44.790Z,3.20
2019-02-15T03:10:11.807Z,1.40
2019-02-15T03:12:38.799Z,2.70
2019-02-15T03:15:06.209Z,2.70
2019-02-15T03:17:33.260Z,2.70
2019-02-15T03:20:00.314Z,3.30
2019-02-15T03:22:27.475Z,2.80
2019-02-15T03:24:54.466Z,2.70
2019-02-15T03:27:21.597Z,4.40
2019-02-15T03:29:48.589Z,2.70
2019-02-15T03:32:15.625Z,1.40
2019-02-15T03:34:42.618Z,2.50
2019-02-15T03:37:31.168Z,2.50
2019-02-15T03:40:04.093Z,2.90
2019-02-15T03:42:31.056Z,2.50
2019-02-15T03:44:59.350Z,2.20
2019-02-15T03:47:27.332Z,2.50
2019-02-15T03:49:54.295Z,2.90
2019-02-15T03:52:21.230Z,2.50
2019-02-15T03:54:48.172Z,2.70
2019-02-15T03:57:15.198Z,2.00
2019-02-15T03:59:42.181Z,2.70
2019-02-15T04:02:09.153Z,3.00
2019-02-15T04:04:36.099Z,2.80
2019-02-15T04:07:03.073Z,3.50
2019-02-15T04:09:30.043Z,2.90
2019-02-15T04:11:57.036Z,2.70
2019-02-15T04:14:32.635Z,2.60
2019-02-15T04:16:51.086Z,3.30
2019-02-15T04:19:18.121Z,3.70
2019-02-15T04:21:45.221Z,2.60
2019-02-15T04:24:13.564Z,0.50
2019-02-15T04:26:39.250Z,2.60
2019-02-15T04:29:06.235Z,0.50
2019-02-15T04:31:33.241Z,1.60
2019-02-15T04:34:00.210Z,1.80
2019-02-15T04:36:27.467Z,1.10
2019-02-15T04:38:54.636Z,3.00
2019-02-15T04:41:21.802Z,2.30
2019-02-15T04:43:48.864Z,1.20
2019-02-15T04:46:17.127Z,2.50
2019-02-15T04:48:44.154Z,2.30
2019-02-15T04:51:11.262Z,2.30
2019-02-15T04:53:38.330Z,2.30
2019-02-15T04:56:05.461Z,2.40
2019-02-15T04:58:32.432Z,4.10
2019-02-15T05:00:59.393Z,3.20
2019-02-15T05:03:26.374Z,3.70
2019-02-15T05:05:53.316Z,3.10
2019-02-15T05:08:20.421Z,2.40
2019-02-15T05:10:47.441Z,2.20
2019-02-15T05:13:14.508Z,2.70
2019-02-15T05:15:41.471Z,2.60
2019-02-15T05:18:08.433Z,2.40
2019-02-15T05:20:35.423Z,2.30
2019-02-15T05:23:02.408Z,2.30
2019-02-15T05:25:29.492Z,2.40
2019-02-15T05:27:56.640Z,2.70
2019-02-15T05:30:23.755Z,2.90
2019-02-15T05:32:50.822Z,3.00
2019-02-15T05:35:17.951Z,1.10
2019-02-15T05:37:44.936Z,4.40
2019-02-15T05:40:11.920Z,2.10
2019-02-15T05:42:38.936Z,3.40
2019-02-15T05:45:26.950Z,1.70
2019-02-15T05:47:54.478Z,2.00
2019-02-15T05:50:21.448Z,2.10
2019-02-15T05:52:48.487Z,2.70
2019-02-15T05:55:15.481Z,2.10
2019-02-15T05:57:42.490Z,1.90
2019-02-15T06:00:09.524Z,1.90
2019-02-15T06:02:36.524Z,1.80
2019-02-15T06:05:03.683Z,2.50
2019-02-15T06:07:30.694Z,2.50
2019-02-15T06:09:59.175Z,2.00
2019-02-15T06:12:26.201Z,3.20
2019-02-15T06:14:53.329Z,2.00
2019-02-15T06:17:21.271Z,2.30
2019-02-15T06:19:48.371Z,4.40
2019-02-15T06:22:15.930Z,1.90
2019-02-15T06:24:42.997Z,1.90
2019-02-15T06:27:10.453Z,3.90
2019-02-15T06:29:37.558Z,2.10
2019-02-15T06:32:04.796Z,3.20
2019-02-15T06:34:31.968Z,3.50
2019-02-15T06:36:59.130Z,2.00
2019-02-15T06:39:26.184Z,4.20
2019-02-15T06:41:53.255Z,1.70
2019-02-15T06:44:21.201Z,2.40
2019-02-15T06:46:48.432Z,1.60
2019-02-15T06:49:15.649Z,1.60
2019-02-15T06:51:42.672Z,1.60
2019-02-15T06:54:09.646Z,1.50
2019-02-15T06:56:36.602Z,1.50
2019-02-15T06:59:09.225Z,1.50
2019-02-15T07:01:41.466Z,1.80
2019-02-15T07:04:18.405Z,1.60
2019-02-15T07:06:45.393Z,1.50
2019-02-15T07:09:12.336Z,1.00
2019-02-15T07:11:39.333Z,1.70
2019-02-15T07:14:06.285Z,1.50
2019-02-15T07:16:33.237Z,1.60
2019-02-15T07:19:00.208Z,1.60
2019-02-15T07:21:27.237Z,1.70
2019-02-15T07:23:54.151Z,1.60
2019-02-15T07:26:21.308Z,1.60
2019-02-15T07:28:48.274Z,2.20
2019-02-15T07:31:15.235Z,3.10
2019-02-15T07:33:42.200Z,1.90
2019-02-15T07:36:09.187Z,1.90
2019-02-15T07:38:36.149Z,2.10
2019-02-15T07:41:03.121Z,2.20
2019-02-15T07:43:30.137Z,2.20
2019-02-15T07:45:57.134Z,3.60
2019-02-15T07:48:24.029Z,3.20
2019-02-15T07:50:51.467Z,2.40
2019-02-15T07:53:18.424Z,2.50
2019-02-15T07:55:45.374Z,3.00
2019-02-15T07:58:12.349Z,2.90
2019-02-15T08:00:39.332Z,3.10
2019-02-15T08:03:06.261Z,3.40
2019-02-15T08:05:33.249Z,3.60
2019-02-15T08:08:00.205Z,3.90
2019-02-15T08:10:27.177Z,4.20
2019-02-15T08:12:54.164Z,4.00
2019-02-15T08:15:21.105Z,4.40
2019-02-15T08:17:48.066Z,4.60
2019-02-15T08:20:15.240Z,4.90
2019-02-15T08:22:42.265Z,5.10
2019-02-15T08:25:09.205Z,5.10
2019-02-15T08:27:36.178Z,4.90
2019-02-15T08:30:03.132Z,5.40
2019-02-15T08:32:30.104Z,5.40
2019-02-15T08:34:57.164Z,5.20
2019-02-15T08:37:24.364Z,5.80
2019-02-15T08:39:51.471Z,6.20
2019-02-15T08:42:18.453Z,7.00
2019-02-15T08:44:45.388Z,6.50
2019-02-15T08:47:12.340Z,8.10
2019-02-15T08:49:41.426Z,7.10
2019-02-15T08:52:13.149Z,7.10
2019-02-15T08:54:39.955Z,7.50
2019-02-15T08:57:06.937Z,8.20
2019-02-15T08:59:33.952Z,8.70
2019-02-15T09:02:20.988Z,9.30
2019-02-15T09:04:48.051Z,10.50
2019-02-15T09:07:14.852Z,11.60
2019-02-15T09:09:41.849Z,12.40
2019-02-15T09:12:08.817Z,13.20
2019-02-15T09:14:35.764Z,13.80
2019-02-15T09:17:02.732Z,14.20
2019-02-15T09:19:32.128Z,14.50
2019-02-15T09:22:00.041Z,15.20
2019-02-15T09:24:27.823Z,15.30
2019-02-15T09:26:54.804Z,16.10
2019-02-15T09:29:21.737Z,17.10
2019-02-15T09:31:48.756Z,17.80
2019-02-15T09:34:15.711Z,17.70
2019-02-15T09:36:42.697Z,18.60
2019-02-15T09:39:09.668Z,19.20
2019-02-15T09:41:36.649Z,19.20
2019-02-15T09:44:03.651Z,19.00
2019-02-15T09:46:30.600Z,19.60
2019-02-15T09:48:57.540Z,19.50
2019-02-15T09:51:24.497Z,19.90
2019-02-15T09:53:52.031Z,20.50
2019-02-15T09:56:19.033Z,20.70
2019-02-15T09:58:45.989Z,21.90
2019-02-15T10:01:13.023Z,22.60
2019-02-15T10:03:39.986Z,21.50
2019-02-15T10:06:06.976Z,22.40
2019-02-15T10:08:34.140Z,22.10
2019-02-15T10:11:01.084Z,22.00
2019-02-15T10:13:28.043Z,21.80
2019-02-15T10:15:55.064Z,20.40
2019-02-15T10:18:22.008Z,22.90
2019-02-15T10:20:48.995Z,22.80
2019-02-15T10:23:15.989Z,23.50
2019-02-15T10:25:42.938Z,24.20
2019-02-15T10:28:09.892Z,24.10
2019-02-15T10:30:36.880Z,24.30
2019-02-15T10:33:03.882Z,24.40
2019-02-15T10:35:30.830Z,24.30
2019-02-15T10:37:57.915Z,24.80
2019-02-15T10:40:24.929Z,25.50
2019-02-15T10:42:51.947Z,24.90
2019-02-15T10:45:18.927Z,24.90
2019-02-15T10:47:45.900Z,24.90
2019-02-15T10:50:12.872Z,26.10
2019-02-15T10:52:39.834Z,27.00
2019-02-15T10:55:07.559Z,26.90
2019-02-15T10:57:34.647Z,26.50
2019-02-15T11:00:01.603Z,27.00
2019-02-15T11:02:28.536Z,27.70
2019-02-15T11:04:55.506Z,28.40
2019-02-15T11:07:22.498Z,27.60
2019-02-15T11:09:49.445Z,27.80
2019-02-15T11:12:16.396Z,27.60
2019-02-15T11:14:43.357Z,27.70
2019-02-15T11:17:10.301Z,27.80
2019-02-15T11:19:37.267Z,28.10
2019-02-15T11:22:04.216Z,28.90
2019-02-15T11:24:31.184Z,28.70
2019-02-15T11:26:58.118Z,28.60
2019-02-15T11:29:25.103Z,29.40
2019-02-15T11:31:52.063Z,28.70
2019-02-15T11:34:19.000Z,29.40
2019-02-15T11:36:45.981Z,30.30
2019-02-15T11:39:13.811Z,29.80
2019-02-15T11:41:40.731Z,29.80
2019-02-15T11:44:07.715Z,29.90
2019-02-15T11:46:34.932Z,30.20
2019-02-15T11:49:01.887Z,29.90
2019-02-15T11:51:28.845Z,30.10
2019-02-15T11:53:55.779Z,30.00
2019-02-15T11:56:22.856Z,30.40
2019-02-15T11:58:49.843Z,30.60
2019-02-15T12:01:16.818Z,30.20
2019-02-15T12:03:43.760Z,30.30
2019-02-15T12:06:10.737Z,30.70
2019-02-15T12:08:37.673Z,30.40
2019-02-15T12:11:04.596Z,30.60
2019-02-15T12:13:31.543Z,30.60
2019-02-15T12:15:58.504Z,30.70
2019-02-15T12:18:25.447Z,30.90
2019-02-15T12:20:52.400Z,30.30
2019-02-15T12:23:19.343Z,30.40
2019-02-15T12:25:46.334Z,31.00
2019-02-15T12:28:13.264Z,30.90
2019-02-15T12:30:40.217Z,30.70
2019-02-15T12:33:07.156Z,30.50
2019-02-15T12:35:34.117Z,30.10
2019-02-15T12:38:01.074Z,29.50
2019-02-15T12:40:28.012Z,29.40
2019-02-15T12:42:54.971Z,29.10
2019-02-15T12:45:21.960Z,28.90
2019-02-15T12:47:49.045Z,28.60
2019-02-15T12:50:16.017Z,28.10
2019-02-15T12:52:42.978Z,27.30
2019-02-15T12:55:10.028Z,26.80
2019-02-15T12:57:38.098Z,26.10
2019-02-15T13:00:07.364Z,25.40
2019-02-15T13:02:35.711Z,24.20
2019-02-15T13:05:02.789Z,24.20
2019-02-15T13:07:31.755Z,23.40
2019-02-15T13:09:58.173Z,22.90
2019-02-15T13:12:25.301Z,22.40
2019-02-15T13:14:52.410Z,21.60
2019-02-15T13:17:24.698Z,20.80
2019-02-15T13:19:46.494Z,21.10
2019-02-15T13:22:13.912Z,21.00
2019-02-15T13:24:40.423Z,20.70
2019-02-15T13:27:07.422Z,20.40
2019-02-15T13:29:34.380Z,20.20
2019-02-15T13:32:01.377Z,19.90
2019-02-15T13:34:28.324Z,19.80
2019-02-15T13:36:55.291Z,19.60
2019-02-15T13:39:22.228Z,19.50
2019-02-15T13:41:49.224Z,19.40
2019-02-15T13:44:17.835Z,19.30
2019-02-15T13:46:43.124Z,17.40
2019-02-15T13:49:10.096Z,19.00
2019-02-15T13:51:37.048Z,18.90
2019-02-15T13:54:04.040Z,18.80
2019-02-15T13:56:31.011Z,18.90
2019-02-15T13:58:59.247Z,18.90
2019-02-15T14:01:26.199Z,18.80
2019-02-15T14:03:53.170Z,18.80
2019-02-15T14:06:20.163Z,18.60
2019-02-15T14:08:47.129Z,18.70
2019-02-15T14:11:14.110Z,18.50
2019-02-15T14:13:41.074Z,18.50
2019-02-15T14:16:08.027Z,18.50
2019-02-15T14:18:34.994Z,18.40
2019-02-15T14:21:02.072Z,18.30
2019-02-15T14:23:29.048Z,18.30
2019-02-15T14:25:56.216Z,18.20
2019-02-15T14:28:23.164Z,18.00
2019-02-15T14:30:50.184Z,17.90
2019-02-15T14:33:17.791Z,17.90
2019-02-15T14:35:45.797Z,17.70
2019-02-15T14:38:13.687Z,17.70
2019-02-15T14:40:40.757Z,17.70
2019-02-15T14:43:07.736Z,17.70
2019-02-15T14:45:35.292Z,17.70
2019-02-15T14:48:02.377Z,17.50
2019-02-15T14:50:29.356Z,17.50
2019-02-15T14:52:56.481Z,17.50
2019-02-15T14:55:23.616Z,17.40
2019-02-15T14:57:50.565Z,17.30
2019-02-15T15:00:17.946Z,17.20
2019-02-15T15:02:44.900Z,17.20
2019-02-15T15:05:12.091Z,17.10
2019-02-15T15:07:39.043Z,17.00
2019-02-15T15:10:06.777Z,18.10
2019-02-15T15:12:33.779Z,16.90
2019-02-15T15:15:00.738Z,16.80
2019-02-15T15:17:27.701Z,16.70
2019-02-15T15:19:54.642Z,16.70
2019-02-15T15:22:21.605Z,16.60
2019-02-15T15:24:48.528Z,16.50
2019-02-15T15:27:15.508Z,16.50
2019-02-15T15:29:42.499Z,16.50
2019-02-15T15:32:09.447Z,16.50
2019-02-15T15:34:36.396Z,16.40
2019-02-15T15:37:03.355Z,16.30
2019-02-15T15:39:30.408Z,16.40
2019-02-15T15:41:57.652Z,16.30
2019-02-15T15:44:24.399Z,16.30
2019-02-15T15:46:51.397Z,16.30
2019-02-15T15:49:18.350Z,16.20
2019-02-15T15:51:45.367Z,16.10
2019-02-15T15:54:12.350Z,15.40
2019-02-15T15:56:39.304Z,16.00
2019-02-15T15:59:06.386Z,15.90
2019-02-15T16:01:33.672Z,15.90
2019-02-15T16:04:00.632Z,15.80
2019-02-15T16:06:27.615Z,15.80
2019-02-15T16:08:54.655Z,15.60
2019-02-15T16:11:21.656Z,15.70
2019-02-15T16:13:48.626Z,15.50
2019-02-15T16:16:15.611Z,15.50
2019-02-15T16:18:42.674Z,15.40
2019-02-15T16:21:09.621Z,15.40
2019-02-15T16:23:36.727Z,15.30
2019-02-15T16:26:03.696Z,15.20
2019-02-15T16:28:30.647Z,15.10
2019-02-15T16:30:57.641Z,15.00
2019-02-15T16:33:24.608Z,14.90
2019-02-15T16:35:51.589Z,14.90
2019-02-15T16:38:18.620Z,14.80
2019-02-15T16:40:45.594Z,14.70
2019-02-15T16:43:12.535Z,14.60
2019-02-15T16:45:39.496Z,14.50
2019-02-15T16:48:06.464Z,14.40
2019-02-15T16:50:33.399Z,14.40
2019-02-15T16:53:00.351Z,14.30
2019-02-15T16:55:27.321Z,14.00
2019-02-15T16:57:54.276Z,14.30
2019-02-15T17:00:21.241Z,14.10
2019-02-15T17:02:48.762Z,14.10
2019-02-15T17:05:15.704Z,14.00
2019-02-15T17:07:42.687Z,13.90
2019-02-15T17:10:09.643Z,13.80
2019-02-15T17:12:36.572Z,13.70
2019-02-15T17:15:03.662Z,13.60
2019-02-15T17:17:30.640Z,13.50
2019-02-15T17:19:57.587Z,13.40
2019-02-15T17:22:24.544Z,13.40
2019-02-15T17:24:51.495Z,13.30
2019-02-15T17:27:18.562Z,13.20
2019-02-15T17:29:45.500Z,12.80
2019-02-15T17:32:12.437Z,13.10
2019-02-15T17:34:39.408Z,13.20
2019-02-15T17:37:06.661Z,13.10
2019-02-15T17:39:33.400Z,13.00
2019-02-15T17:42:00.337Z,12.90
2019-02-15T17:44:27.325Z,12.80
2019-02-15T17:46:54.298Z,12.80
2019-02-15T17:49:21.242Z,12.70
2019-02-15T17:51:48.194Z,12.70
2019-02-15T17:54:15.131Z,12.60
2019-02-15T17:56:42.088Z,12.40
2019-02-15T17:59:09.057Z,12.40
2019-02-15T18:01:36.137Z,12.50
2019-02-15T18:04:03.801Z,12.50
2019-02-15T18:06:31.102Z,12.50
2019-02-15T18:08:58.165Z,12.40
2019-02-15T18:11:25.169Z,12.30
2019-02-15T18:13:52.152Z,12.20
2019-02-15T18:16:19.093Z,12.10
2019-02-15T18:18:46.031Z,12.00
2019-02-15T18:21:13.020Z,12.00
2019-02-15T18:23:39.972Z,11.90
2019-02-15T18:26:06.999Z,11.90
2019-02-15T18:28:34.012Z,11.90
2019-02-15T18:31:00.941Z,11.80
2019-02-15T18:33:27.944Z,11.80
2019-02-15T18:35:54.992Z,11.70
2019-02-15T18:38:21.909Z,11.70
2019-02-15T18:40:48.901Z,11.70
2019-02-15T18:43:15.889Z,11.60
2019-02-15T18:45:42.883Z,11.60
2019-02-15T18:48:09.847Z,11.50
2019-02-15T18:50:36.836Z,11.40
2019-02-15T18:53:03.817Z,11.30
2019-02-15T18:55:30.829Z,11.00
2019-02-15T18:57:57.826Z,10.90
2019-02-15T19:00:24.784Z,10.90
2019-02-15T19:02:51.745Z,10.80
2019-02-15T19:05:19.324Z,10.80
2019-02-15T19:07:46.381Z,10.90
2019-02-15T19:10:15.620Z,10.90
2019-02-15T19:12:42.631Z,10.20
2019-02-15T19:15:10.612Z,10.00
2019-02-15T19:17:37.559Z,10.70
2019-02-15T19:20:05.141Z,10.60
2019-02-15T19:22:32.136Z,10.50
2019-02-15T19:24:59.116Z,10.40
2019-02-15T19:27:26.101Z,10.30
2019-02-15T19:29:53.080Z,10.10
2019-02-15T19:32:20.049Z,10.10
2019-02-15T19:34:47.037Z,10.10
2019-02-15T19:37:14.009Z,10.00
2019-02-15T19:39:41.039Z,9.90
2019-02-15T19:42:13.098Z,9.90
2019-02-15T19:44:40.044Z,9.70
2019-02-15T19:47:07.018Z,9.60
2019-02-15T19:49:38.879Z,9.10
2019-02-15T19:52:00.943Z,9.50
2019-02-15T19:54:27.920Z,9.40
2019-02-15T19:56:54.927Z,9.40
2019-02-15T19:59:21.888Z,9.40
2019-02-15T20:01:48.838Z,9.40
2019-02-15T20:04:15.792Z,9.40
2019-02-15T20:06:44.283Z,9.30
2019-02-15T20:09:11.243Z,9.10
2019-02-15T20:11:38.257Z,9.10
2019-02-15T20:14:05.310Z,8.90
2019-02-15T20:16:32.281Z,8.90
2019-02-15T20:18:59.321Z,8.90
2019-02-15T20:21:26.319Z,8.90
2019-02-15T20:23:53.305Z,7.90
2019-02-15T20:26:20.291Z,8.80
2019-02-15T20:28:47.267Z,8.80
2019-02-15T20:31:14.245Z,9.00
2019-02-15T20:33:41.233Z,8.70
2019-02-15T20:36:08.239Z,8.70
2019-02-15T20:38:35.269Z,8.50
2019-02-15T20:41:02.265Z,8.50
2019-02-15T20:43:29.216Z,8.50
2019-02-15T20:45:56.188Z,8.40
2019-02-15T20:48:23.263Z,8.30
2019-02-15T20:50:50.356Z,8.20
2019-02-15T20:53:17.772Z,8.20
2019-02-15T20:55:44.812Z,8.10
2019-02-15T20:58:11.966Z,7.90
2019-02-15T21:00:38.954Z,7.90
2019-02-15T21:03:05.921Z,7.80
2019-02-15T21:05:32.912Z,7.70
2019-02-15T21:08:00.336Z,7.70
2019-02-15T21:10:27.324Z,7.70
2019-02-15T21:12:54.309Z,7.60
2019-02-15T21:15:21.300Z,7.70
2019-02-15T21:17:48.331Z,7.60
2019-02-15T21:20:15.284Z,7.50
2019-02-15T21:22:42.238Z,7.50
2019-02-15T21:25:10.421Z,7.40
2019-02-15T21:27:37.426Z,7.40
2019-02-15T21:30:05.613Z,7.40
2019-02-15T21:32:32.628Z,7.20
2019-02-15T21:34:59.916Z,7.30
2019-02-15T21:37:27.017Z,7.60
2019-02-15T21:39:53.985Z,7.20
2019-02-15T21:42:20.984Z,7.50
2019-02-15T21:44:47.932Z,7.10
2019-02-15T21:47:14.929Z,7.10
2019-02-15T21:49:41.961Z,7.10
2019-02-15T21:52:08.947Z,7.40
2019-02-15T21:54:35.964Z,7.10
2019-02-15T21:57:02.908Z,7.20
2019-02-15T21:59:29.869Z,7.10
2019-02-15T22:01:56.940Z,7.10
2019-02-15T22:04:23.923Z,6.90
2019-02-15T22:06:50.861Z,6.40
2019-02-15T22:09:18.159Z,6.80
2019-02-15T22:11:45.103Z,6.70
2019-02-15T22:14:12.048Z,6.60
2019-02-15T22:16:39.013Z,6.60
2019-02-15T22:19:05.963Z,6.60
2019-02-15T22:21:32.916Z,6.60
2019-02-15T22:23:59.883Z,6.60
2019-02-15T22:26:26.819Z,6.60
2019-02-15T22:28:53.760Z,6.60
2019-02-15T22:31:20.809Z,6.60
2019-02-15T22:33:47.760Z,6.60
2019-02-15T22:36:14.788Z,6.50
2019-02-15T22:38:41.769Z,6.50
2019-02-15T22:41:13.955Z,6.60
2019-02-15T22:43:41.836Z,6.60
2019-02-15T22:46:09.024Z,6.60
2019-02-15T22:48:35.992Z,6.50
2019-02-15T22:51:03.017Z,6.30
2019-02-15T22:53:30.161Z,6.20
2019-02-15T22:55:57.123Z,6.10
2019-02-15T22:58:24.129Z,6.00
2019-02-15T23:00:57.647Z,5.80
2019-02-15T23:03:25.505Z,5.80
2019-02-15T23:05:52.608Z,5.90
2019-02-15T23:08:19.684Z,5.80
2019-02-15T23:10:47.227Z,5.80
2019-02-15T23:13:14.358Z,4.50
2019-02-15T23:15:41.551Z,5.70
2019-02-15T23:18:08.540Z,5.70
2019-02-15T23:20:44.622Z,5.60
2019-02-15T23:23:02.697Z,5.50
2019-02-15T23:25:29.684Z,5.40
2019-02-15T23:27:56.771Z,5.30
2019-02-15T23:30:24.091Z,5.30
2019-02-15T23:32:51.285Z,5.20
2019-02-15T23:35:18.321Z,5.50
2019-02-15T23:37:45.312Z,5.20
2019-02-15T23:40:12.294Z,5.20
2019-02-15T23:42:39.298Z,5.20
2019-02-15T23:45:06.360Z,5.20
2019-02-15T23:47:33.421Z,5.30
2019-02-15T23:50:00.395Z,5.30
2019-02-15T23:52:27.418Z,5.20
2019-02-15T23:54:54.396Z,5.30
2019-02-15T23:57:21.489Z,5.20
2019-02-15T23:59:48.563Z,5.20
